
Distance (Route):
Temperature : -24.7°C
Humidity : 27.4%
Pressure : 360.6hPa| Receiver | Date | Latitude | Longitude | Direction | Speed | Altitude | Climb | Temperature | Humidity | Pressure | Voltage | Killtimer | Uptime | BKT | XDATA |
|---|---|---|---|---|---|---|---|---|---|---|---|---|---|---|---|
| AUTORXJP | 2026-08-31 01:29:10 | 44.22876 | 5.94167 | 73° | 104km/h | 8341m | -5.3m/s | -24.7°C | 27.4% | 360.6hPa | 0V | 00:00:00 | 00:00:00 | 00:00:00 | |
| AUTORXJP | 2026-08-31 01:28:39 | 44.22667 | 5.93364 | 73° | 117km/h | 8462m | -4.8m/s | -25.5°C | 28.3% | 354.9hPa | 0V | 00:00:00 | 00:00:00 | 00:00:00 | |
| AUTORXJP | 2026-08-31 01:28:07 | 44.22502 | 5.92659 | 69° | 102km/h | 8562m | -5.1m/s | -26.5°C | 31.7% | 349.9hPa | 0V | 00:00:00 | 00:00:00 | 00:00:00 | |
| AUTORXJP | 2026-08-31 01:27:36 | 44.22197 | 5.91470 | 68° | 124km/h | 8732m | -5.5m/s | -28.0°C | 36.2% | 341.8hPa | 0V | 00:00:00 | 00:00:00 | 00:00:00 | |
| AUTORXJP | 2026-08-31 01:27:05 | 44.21891 | 5.90197 | 72° | 110km/h | 8901m | -4.4m/s | -29.4°C | 33.5% | 333.6hPa | 0V | 00:00:00 | 00:00:00 | 00:00:00 | |
| AUTORXJP | 2026-08-31 01:26:34 | 44.21575 | 5.88990 | 64° | 117km/h | 9065m | -5.1m/s | -30.6°C | 31.2% | 326.0hPa | 0V | 00:00:00 | 00:00:00 | 00:00:00 | |
| AUTORXJP | 2026-08-31 01:26:03 | 44.21247 | 5.87780 | 70° | 124km/h | 9228m | -4.9m/s | -32.0°C | 30.4% | 318.6hPa | 0V | 00:00:00 | 00:00:00 | 00:00:00 | |
| AUTORXJP | 2026-08-31 01:25:32 | 44.20933 | 5.86562 | 76° | 122km/h | 9387m | -5.2m/s | -32.6°C | 26.1% | 311.5hPa | 0V | 00:00:00 | 00:00:00 | 00:00:00 | |
| AUTORXJP | 2026-08-31 01:25:01 | 44.20644 | 5.85308 | 74° | 119km/h | 9555m | -4.8m/s | -34.1°C | 28.1% | 304.2hPa | 0V | 00:00:00 | 00:00:00 | 00:00:00 | |
| AUTORXJP | 2026-08-31 01:24:30 | 44.20365 | 5.84058 | 71° | 113km/h | 9728m | -3.8m/s | -35.5°C | 32.6% | 296.8hPa | 0V | 00:00:00 | 00:00:00 | 00:00:00 | |
| AUTORXJP | 2026-08-31 01:23:59 | 44.20081 | 5.82771 | 70° | 135km/h | 9894m | -4.2m/s | -37.1°C | 38.9% | 289.8hPa | 0V | 00:00:00 | 00:00:00 | 00:00:00 | |
| AUTORXJP | 2026-08-31 01:23:28 | 44.19798 | 5.81479 | 68° | 117km/h | 10056m | -6.5m/s | -38.7°C | 41.3% | 282.8hPa | 0V | 00:00:00 | 00:00:00 | 00:00:00 | |
| AUTORXJP | 2026-08-31 01:22:57 | 44.19516 | 5.80175 | 78° | 117km/h | 10232m | -5.8m/s | -40.0°C | 39.0% | 275.8hPa | 0V | 00:00:00 | 00:00:00 | 00:00:00 | |
| AUTORXJP | 2026-08-31 01:22:26 | 44.19281 | 5.78826 | 78° | 142km/h | 10407m | -4.4m/s | -41.5°C | 42.6% | 268.8hPa | 0V | 00:00:00 | 00:00:00 | 00:00:00 | |
| AUTORXJP | 2026-08-31 01:21:55 | 44.19046 | 5.77439 | 70° | 128km/h | 10586m | -4.1m/s | -42.9°C | 46.1% | 261.8hPa | 0V | 00:00:00 | 00:00:00 | 00:00:00 | |
| AUTORXJP | 2026-08-31 01:21:23 | 44.18757 | 5.76025 | 79° | 131km/h | 10759m | -5.8m/s | -44.4°C | 50.7% | 255.0hPa | 0V | 00:00:00 | 00:00:00 | 00:00:00 | |
| AUTORXJP | 2026-08-31 01:20:52 | 44.18456 | 5.74637 | 72° | 146km/h | 10940m | -4.4m/s | -46.1°C | 53.0% | 248.3hPa | 0V | 00:00:00 | 00:00:00 | 00:00:00 | |
| AUTORXJP | 2026-08-31 01:20:21 | 44.18152 | 5.73203 | 70° | 139km/h | 11125m | -5.7m/s | -47.7°C | 51.4% | 241.5hPa | 0V | 00:00:00 | 00:00:00 | 00:00:00 | |
| AUTORXJP | 2026-08-31 01:19:50 | 44.17868 | 5.71824 | 73° | 135km/h | 11308m | -5.6m/s | -49.0°C | 49.7% | 234.9hPa | 0V | 00:00:00 | 00:00:00 | 00:00:00 | |
| AUTORXJP | 2026-08-31 01:19:19 | 44.17562 | 5.70447 | 67° | 126km/h | 11495m | -6.2m/s | -50.2°C | 49.7% | 228.2hPa | 0V | 00:00:00 | 00:00:00 | 00:00:00 | |
| AUTORXJP | 2026-08-31 01:18:48 | 44.17255 | 5.69058 | 68° | 137km/h | 11683m | -4.4m/s | -51.7°C | 50.7% | 221.7hPa | 0V | 00:00:00 | 00:00:00 | 00:00:00 | |
| AUTORXJP | 2026-08-31 01:18:17 | 44.16962 | 5.67659 | 69° | 122km/h | 11876m | -6.3m/s | -53.2°C | 49.7% | 215.1hPa | 0V | 00:00:00 | 00:00:00 | 00:00:00 | |
| AUTORXJP | 2026-08-31 01:17:46 | 44.16673 | 5.66264 | 76° | 119km/h | 12073m | -6.0m/s | -54.8°C | 46.5% | 208.6hPa | 0V | 00:00:00 | 00:00:00 | 00:00:00 | |
| AUTORXJP | 2026-08-31 01:17:15 | 44.16418 | 5.64833 | 79° | 124km/h | 12272m | -6.8m/s | -56.2°C | 41.0% | 202.2hPa | 0V | 00:00:00 | 00:00:00 | 00:00:00 | |
| AUTORXJP | 2026-08-31 01:16:44 | 44.16175 | 5.63381 | 84° | 139km/h | 12474m | -6.9m/s | -57.3°C | 34.5% | 196.0hPa | 0V | 00:00:00 | 00:00:00 | 00:00:00 | |
| AUTORXJP | 2026-08-31 01:16:13 | 44.15939 | 5.61930 | 79° | 148km/h | 12675m | -6.0m/s | -58.8°C | 27.6% | 189.8hPa | 0V | 00:00:00 | 00:00:00 | 00:00:00 | |
| AUTORXJP | 2026-08-31 01:15:42 | 44.15716 | 5.60519 | 72° | 139km/h | 12878m | -5.9m/s | -59.3°C | 23.4% | 183.7hPa | 0V | 00:00:00 | 00:00:00 | 00:00:00 | |
| AUTORXJP | 2026-08-31 01:15:11 | 44.15469 | 5.59185 | 71° | 113km/h | 13083m | -6.3m/s | -59.9°C | 20.3% | 177.9hPa | 0V | 00:00:00 | 00:00:00 | 00:00:00 | |
| AUTORXJP | 2026-08-31 01:14:40 | 44.15234 | 5.57919 | 75° | 102km/h | 13288m | -5.9m/s | -60.5°C | 17.2% | 172.1hPa | 0V | 00:00:00 | 00:00:00 | 00:00:00 | |
| AUTORXJP | 2026-08-31 01:14:08 | 44.14993 | 5.56774 | 75° | 91km/h | 13496m | -5.9m/s | -61.3°C | 13.7% | 166.4hPa | 0V | 00:00:00 | 00:00:00 | 00:00:00 | |
| AUTORXJP | 2026-08-31 01:13:37 | 44.14755 | 5.55684 | 81° | 100km/h | 13702m | -6.8m/s | -62.2°C | 10.8% | 161.0hPa | 0V | 00:00:00 | 00:00:00 | 00:00:00 | |
| AUTORXJP | 2026-08-31 01:13:06 | 44.14461 | 5.54684 | 67° | 117km/h | 13913m | -7.0m/s | -61.8°C | 8.6% | 155.6hPa | 0V | 00:00:00 | 00:00:00 | 00:00:00 | |
| AUTORXJP | 2026-08-31 01:12:35 | 44.14109 | 5.53661 | 59° | 117km/h | 14135m | -7.3m/s | -61.1°C | 6.5% | 150.1hPa | 0V | 00:00:00 | 00:00:00 | 00:00:00 | |
| AUTORXJP | 2026-08-31 01:12:04 | 44.13799 | 5.52730 | 53° | 75km/h | 14357m | -7.5m/s | -61.3°C | 4.6% | 144.8hPa | 0V | 00:00:00 | 00:00:00 | 00:00:00 | |
| AUTORXJP | 2026-08-31 01:11:33 | 44.13443 | 5.51954 | 56° | 64km/h | 14590m | -6.3m/s | -62.2°C | 3.0% | 139.4hPa | 0V | 00:00:00 | 00:00:00 | 00:00:00 | |
| AUTORXJP | 2026-08-31 01:11:02 | 44.13131 | 5.51103 | 80° | 97km/h | 14832m | -6.6m/s | -62.3°C | 1.8% | 134.1hPa | 0V | 00:00:00 | 00:00:00 | 00:00:00 | |
| AUTORXJP | 2026-08-31 01:10:31 | 44.12947 | 5.50122 | 78° | 110km/h | 15078m | -7.0m/s | -62.7°C | 1.0% | 128.9hPa | 0V | 00:00:00 | 00:00:00 | 00:00:00 | |
| AUTORXJP | 2026-08-31 01:10:00 | 44.12829 | 5.49267 | 58° | 64km/h | 15328m | -6.8m/s | -61.4°C | 0.4% | 123.8hPa | 0V | 00:00:00 | 00:00:00 | 00:00:00 | |
| AUTORXJP | 2026-08-31 01:09:29 | 44.12611 | 5.48569 | 61° | 49km/h | 15580m | -7.1m/s | -63.1°C | 0.0% | 118.8hPa | 0V | 00:00:00 | 00:00:00 | 00:00:00 | |
| AUTORXJP | 2026-08-31 01:08:58 | 44.12364 | 5.47813 | 81° | 88km/h | 15836m | -8.2m/s | -61.7°C | 0.0% | 114.0hPa | 0V | 00:00:00 | 00:00:00 | 00:00:00 | |
| AUTORXJP | 2026-08-31 01:08:27 | 44.12199 | 5.47030 | 63° | 91km/h | 16096m | -9.2m/s | -60.8°C | 0.0% | 109.3hPa | 0V | 00:00:00 | 00:00:00 | 00:00:00 | |
| AUTORXJP | 2026-08-31 01:07:56 | 44.11921 | 5.46353 | 48° | 88km/h | 16361m | -7.8m/s | -62.0°C | 0.0% | 104.8hPa | 0V | 00:00:00 | 00:00:00 | 00:00:00 | |
| AUTORXJP | 2026-08-31 01:07:25 | 44.11689 | 5.45589 | 87° | 53km/h | 16630m | -7.3m/s | -60.7°C | 0.0% | 100.2hPa | 0V | 00:00:00 | 00:00:00 | 00:00:00 | |
| AUTORXJP | 2026-08-31 01:06:53 | 44.11650 | 5.44921 | 113° | 60km/h | 16915m | -9.2m/s | -60.3°C | 0.0% | 95.8hPa | 0V | 00:00:00 | 00:00:00 | 00:00:00 | |
| AUTORXJP | 2026-08-31 01:06:22 | 44.11701 | 5.44582 | 91° | 38km/h | 17199m | -8.2m/s | -58.3°C | 0.0% | 91.6hPa | 0V | 00:00:00 | 00:00:00 | 00:00:00 | |
| AUTORXJP | 2026-08-31 01:05:51 | 44.11607 | 5.44462 | 40° | 44km/h | 17491m | -8.6m/s | -56.6°C | 0.0% | 87.4hPa | 0V | 00:00:00 | 00:00:00 | 00:00:00 | |
| AUTORXJP | 2026-08-31 01:05:20 | 44.11391 | 5.44314 | 9° | 51km/h | 17789m | -9.3m/s | -58.4°C | 0.0% | 83.4hPa | 0V | 00:00:00 | 00:00:00 | 00:00:00 | |
| AUTORXJP | 2026-08-31 01:04:49 | 44.11140 | 5.44047 | 53° | 38km/h | 18119m | -10.9m/s | -59.2°C | 0.0% | 79.1hPa | 0V | 00:00:00 | 00:00:00 | 00:00:00 | |
| AUTORXJP | 2026-08-31 01:04:18 | 44.11027 | 5.43723 | 75° | 29km/h | 18480m | -9.9m/s | -56.7°C | 0.0% | 74.7hPa | 0V | 00:00:00 | 00:00:00 | 00:00:00 | |
| AUTORXJP | 2026-08-31 01:03:47 | 44.10964 | 5.43404 | 95° | 18km/h | 18857m | -11.1m/s | -55.5°C | 0.0% | 70.4hPa | 0V | 00:00:00 | 00:00:00 | 00:00:00 | |
| AUTORXJP | 2026-08-31 01:03:16 | 44.10993 | 5.43271 | 47° | 9km/h | 19245m | -11.4m/s | -56.7°C | 0.0% | 66.3hPa | 0V | 00:00:00 | 00:00:00 | 00:00:00 | |
| AUTORXJP | 2026-08-31 01:02:45 | 44.10874 | 5.43100 | 80° | 22km/h | 19648m | -11.3m/s | -56.7°C | 0.0% | 62.2hPa | 0V | 00:00:00 | 00:00:00 | 00:00:00 | |
| AUTORXJP | 2026-08-31 01:02:14 | 44.10867 | 5.42902 | 32° | 4km/h | 20100m | -13.3m/s | -57.4°C | 0.0% | 57.9hPa | 0V | 00:00:00 | 00:00:00 | 00:00:00 | |
| AUTORXJP | 2026-08-31 01:01:39 | 44.10867 | 5.42914 | 307° | 13km/h | 20594m | -13.2m/s | -55.6°C | 0.0% | 53.5hPa | 0V | 00:00:00 | 00:00:00 | 00:00:00 | |
| DB0UT-7 | 2026-08-31 01:01:13 | 44.10780 | 5.42919 | 40° | 15km/h | 20961m | -13.7m/s | 0°C | 0% | 0hPa | 0V | 00:00:00 | 00:00:00 | 00:00:00 | |
| AUTORXJP | 2026-08-31 01:01:08 | 44.10769 | 5.42906 | 27° | 13km/h | 21053m | -12.8m/s | -55.0°C | 0.0% | 49.8hPa | 0V | 00:00:00 | 00:00:00 | 00:00:00 | |
| AUTORXJP | 2026-08-31 01:00:37 | 44.10706 | 5.42895 | 292° | 11km/h | 21550m | -14.5m/s | -54.8°C | 0.0% | 46.0hPa | 0V | 00:00:00 | 00:00:00 | 00:00:00 | |
| AUTORXJP | 2026-08-31 01:00:06 | 44.10663 | 5.42904 | 12° | 5km/h | 22069m | -15.5m/s | -54.1°C | 0.0% | 42.5hPa | 0V | 00:00:00 | 00:00:00 | 00:00:00 | |
| AUTORXJP | 2026-08-31 00:59:34 | 44.10653 | 5.42883 | 200° | 15km/h | 22613m | -15.9m/s | -55.5°C | 0.0% | 39.0hPa | 0V | 00:00:00 | 00:00:00 | 00:00:00 | |
| AUTORXJP | 2026-08-31 00:59:03 | 44.10650 | 5.43087 | 325° | 20km/h | 23178m | -16.7m/s | -55.3°C | 0.0% | 35.6hPa | 0V | 00:00:00 | 00:00:00 | 00:00:00 | |
| AUTORXJP | 2026-08-31 00:58:32 | 44.10606 | 5.43143 | 328° | 7km/h | 23795m | -18.7m/s | -53.9°C | 0.0% | 32.4hPa | 0V | 00:00:00 | 00:00:00 | 00:00:00 | |
| AUTORXJP | 2026-08-31 00:58:01 | 44.10462 | 5.43212 | 24° | 16km/h | 24426m | -19.4m/s | -53.0°C | 0.0% | 29.3hPa | 0V | 00:00:00 | 00:00:00 | 00:00:00 | |
| AUTORXJP | 2026-08-31 00:57:30 | 44.10447 | 5.43274 | 297° | 9km/h | 25094m | -21.1m/s | -51.9°C | 0.0% | 26.4hPa | 0V | 00:00:00 | 00:00:00 | 00:00:00 | |
| AUTORXJP | 2026-08-31 00:56:59 | 44.10433 | 5.43375 | 310° | 7km/h | 25797m | -21.8m/s | -51.6°C | 0.0% | 23.7hPa | 0V | 00:00:00 | 00:00:00 | 00:00:00 | |
| AUTORXJP | 2026-08-31 00:56:28 | 44.10439 | 5.43553 | 292° | 18km/h | 26536m | -23.3m/s | -50.5°C | 0.0% | 21.1hPa | 0V | 00:00:00 | 00:00:00 | 00:00:00 | |
| DB0UT-7 | 2026-08-31 00:56:22 | 44.10436 | 5.43590 | 278° | 15km/h | 26660m | -23.3m/s | 0°C | 0% | 0hPa | 0V | 00:00:00 | 00:00:00 | 00:00:00 | |
| AUTORXJP | 2026-08-31 00:55:57 | 44.10367 | 5.43649 | 311° | 16km/h | 27328m | -24.5m/s | -49.6°C | 0.0% | 18.7hPa | 0V | 00:00:00 | 00:00:00 | 00:00:00 | |
| AUTORXJP | 2026-08-31 00:55:26 | 44.10328 | 5.43630 | 87° | 13km/h | 28164m | -25.0m/s | -47.3°C | 0.0% | 16.4hPa | 0V | 00:00:00 | 00:00:00 | 00:00:00 | |
| AUTORXJP | 2026-08-31 00:54:55 | 44.10322 | 5.43519 | 75° | 15km/h | 28822m | 5.2m/s | -46.1°C | 0.0% | 14.9hPa | 0V | 00:00:00 | 00:00:00 | 00:00:00 | |
| AUTORXJP | 2026-08-31 00:54:24 | 44.10270 | 5.43385 | 5° | 24km/h | 28642m | 4.1m/s | -46.3°C | 0.0% | 15.3hPa | 0V | 00:00:00 | 00:00:00 | 00:00:00 | |
| DB0UT-7 | 2026-08-31 00:54:15 | 44.10251 | 5.43332 | 70° | 22km/h | 28598m | 5.3m/s | 0°C | 0% | 0hPa | 0V | 00:00:00 | 00:00:00 | 00:00:00 | |
| AUTORXJP | 2026-08-31 00:53:53 | 44.10233 | 5.43226 | 94° | 15km/h | 28463m | 4.6m/s | -47.0°C | 0.0% | 15.7hPa | 0V | 00:00:00 | 00:00:00 | 00:00:00 | |
| AUTORXJP | 2026-08-31 00:53:22 | 44.10203 | 5.43164 | 300° | 9km/h | 28285m | 5.0m/s | -47.2°C | 0.0% | 16.2hPa | 0V | 00:00:00 | 00:00:00 | 00:00:00 | |
| AUTORXJP | 2026-08-31 00:52:50 | 44.10142 | 5.43131 | 113° | 13km/h | 28105m | 5.7m/s | -47.5°C | 0.0% | 16.6hPa | 0V | 00:00:00 | 00:00:00 | 00:00:00 | |
| AUTORXJP | 2026-08-31 00:52:19 | 44.10131 | 5.43032 | 72° | 20km/h | 27924m | 5.0m/s | -47.3°C | 0.0% | 17.1hPa | 0V | 00:00:00 | 00:00:00 | 00:00:00 | |
| AUTORXJP | 2026-08-31 00:51:48 | 44.10082 | 5.42969 | 275° | 9km/h | 27751m | 5.0m/s | -47.5°C | 0.0% | 17.6hPa | 0V | 00:00:00 | 00:00:00 | 00:00:00 | |
| AUTORXJP | 2026-08-31 00:51:17 | 44.10001 | 5.42961 | 340° | 11km/h | 27582m | 4.9m/s | -48.9°C | 0.0% | 18.0hPa | 0V | 00:00:00 | 00:00:00 | 00:00:00 | |
| AUTORXJP | 2026-08-31 00:50:46 | 44.09911 | 5.43057 | 290° | 29km/h | 27405m | 4.6m/s | -49.8°C | 0.0% | 18.5hPa | 0V | 00:00:00 | 00:00:00 | 00:00:00 | |
| AUTORXJP | 2026-08-31 00:50:15 | 44.09847 | 5.43169 | 291° | 7km/h | 27231m | 5.6m/s | -49.6°C | 0.0% | 19.1hPa | 0V | 00:00:00 | 00:00:00 | 00:00:00 | |
| AUTORXJP | 2026-08-31 00:49:44 | 44.09765 | 5.43250 | 331° | 16km/h | 27056m | 6.2m/s | -49.2°C | 0.0% | 19.6hPa | 0V | 00:00:00 | 00:00:00 | 00:00:00 | |
| AUTORXJP | 2026-08-31 00:49:13 | 44.09630 | 5.43257 | 326° | 18km/h | 26880m | 5.7m/s | -49.0°C | 0.0% | 20.1hPa | 0V | 00:00:00 | 00:00:00 | 00:00:00 | |
| AUTORXJP | 2026-08-31 00:48:42 | 44.09552 | 5.43387 | 290° | 27km/h | 26703m | 4.4m/s | -49.3°C | 0.0% | 20.7hPa | 0V | 00:00:00 | 00:00:00 | 00:00:00 | |
| AUTORXJP | 2026-08-31 00:48:11 | 44.09509 | 5.43598 | 295° | 16km/h | 26525m | 5.5m/s | -50.7°C | 0.0% | 21.2hPa | 0V | 00:00:00 | 00:00:00 | 00:00:00 | |
| DB0UT-7 | 2026-08-31 00:47:47 | 44.09491 | 5.43794 | 285° | 29km/h | 26398m | 7.1m/s | 0°C | 0% | 0hPa | 0V | 00:00:00 | 00:00:00 | 00:00:00 | |
| AUTORXJP | 2026-08-31 00:47:40 | 44.09491 | 5.43873 | 291° | 20km/h | 26354m | 6.1m/s | -50.3°C | 0.0% | 21.8hPa | 0V | 00:00:00 | 00:00:00 | 00:00:00 | |
| DB0UT-7 | 2026-08-31 00:47:17 | 44.09490 | 5.44095 | 269° | 13km/h | 26232m | 5.4m/s | 0°C | 0% | 0hPa | 0V | 00:00:00 | 00:00:00 | 00:00:00 | |
| AUTORXJP | 2026-08-31 00:47:10 | 44.09501 | 5.44163 | 279° | 27km/h | 26180m | 5.4m/s | -49.8°C | 0.0% | 22.4hPa | 0V | 00:00:00 | 00:00:00 | 00:00:00 | |
| AUTORXJP | 2026-08-31 00:46:37 | 44.09542 | 5.44329 | 245° | 16km/h | 26008m | 5.6m/s | -50.1°C | 0.0% | 23.1hPa | 0V | 00:00:00 | 00:00:00 | 00:00:00 | |
| AUTORXJP | 2026-08-31 00:46:06 | 44.09620 | 5.44354 | 174° | 7km/h | 25832m | 5.5m/s | -50.9°C | 0.0% | 23.7hPa | 0V | 00:00:00 | 00:00:00 | 00:00:00 | |
| DB0UT-7 | 2026-08-31 00:46:01 | 44.09614 | 5.44356 | 272° | 15km/h | 25804m | 5.9m/s | 0°C | 0% | 0hPa | 0V | 00:00:00 | 00:00:00 | 00:00:00 | |
| AUTORXJP | 2026-08-31 00:45:35 | 44.09579 | 5.44415 | 258° | 13km/h | 25654m | 3.9m/s | -51.4°C | 0.0% | 24.3hPa | 0V | 00:00:00 | 00:00:00 | 00:00:00 | |
| DB0UT-7 | 2026-08-31 00:45:31 | 44.09565 | 5.44435 | 319° | 15km/h | 25631m | 6.5m/s | 0°C | 0% | 0hPa | 0V | 00:00:00 | 00:00:00 | 00:00:00 | |
| AUTORXJP | 2026-08-31 00:45:05 | 44.09556 | 5.44565 | 195° | 20km/h | 25473m | 4.3m/s | -51.0°C | 0.0% | 25.0hPa | 0V | 00:00:00 | 00:00:00 | 00:00:00 | |
| AUTORXJP | 2026-08-31 00:44:33 | 44.09610 | 5.44600 | 209° | 11km/h | 25301m | 5.6m/s | -51.2°C | 0.0% | 25.7hPa | 0V | 00:00:00 | 00:00:00 | 00:00:00 | |
| DB0UT-7 | 2026-08-31 00:44:23 | 44.09605 | 5.44597 | 227° | 11km/h | 25249m | 7.3m/s | 0°C | 0% | 0hPa | 0V | 00:00:00 | 00:00:00 | 00:00:00 | |
| DB0UT-7 | 2026-08-31 00:43:52 | 44.09575 | 5.44664 | 322° | 5km/h | 25077m | 5.4m/s | 0°C | 0% | 0hPa | 0V | 00:00:00 | 00:00:00 | 00:00:00 | |
| AUTORXJP | 2026-08-31 00:43:31 | 44.09591 | 5.44724 | 293° | 13km/h | 24955m | 4.6m/s | -52.0°C | 0.0% | 27.1hPa | 0V | 00:00:00 | 00:00:00 | 00:00:00 | |
| AUTORXJP | 2026-08-31 00:42:29 | 44.09579 | 5.44863 | 85° | 4km/h | 24620m | 5.1m/s | -53.5°C | 0.0% | 28.6hPa | 0V | 00:00:00 | 00:00:00 | 00:00:00 | |
| AUTORXJP | 2026-08-31 00:41:58 | 44.09503 | 5.44797 | 7° | 11km/h | 24453m | 4.0m/s | -53.2°C | 0.0% | 29.3hPa | 0V | 00:00:00 | 00:00:00 | 00:00:00 | |
| AUTORXJP | 2026-08-31 00:41:27 | 44.09327 | 5.44805 | 359° | 27km/h | 24286m | 6.3m/s | -53.9°C | 0.0% | 30.1hPa | 0V | 00:00:00 | 00:00:00 | 00:00:00 | |
| AUTORXJP | 2026-08-31 00:40:56 | 44.09151 | 5.44921 | 321° | 26km/h | 24121m | 6.5m/s | -54.3°C | 0.0% | 30.9hPa | 0V | 00:00:00 | 00:00:00 | 00:00:00 | |
| AUTORXJP | 2026-08-31 00:40:25 | 44.09043 | 5.45052 | 326° | 16km/h | 23950m | 5.8m/s | -54.0°C | 0.0% | 31.7hPa | 0V | 00:00:00 | 00:00:00 | 00:00:00 | |
| AUTORXJP | 2026-08-31 00:39:53 | 44.08984 | 5.45122 | 348° | 15km/h | 23778m | 6.4m/s | -54.0°C | 0.0% | 32.6hPa | 0V | 00:00:00 | 00:00:00 | 00:00:00 | |
| AUTORXJP | 2026-08-31 00:39:23 | 44.08947 | 5.45201 | 260° | 0km/h | 23603m | 5.5m/s | -53.9°C | 0.0% | 33.5hPa | 0V | 00:00:00 | 00:00:00 | 00:00:00 | |
| AUTORXJP | 2026-08-31 00:38:51 | 44.08969 | 5.45312 | 135° | 2km/h | 23439m | 4.9m/s | -54.0°C | 0.0% | 34.4hPa | 0V | 00:00:00 | 00:00:00 | 00:00:00 | |
| AUTORXJP | 2026-08-31 00:38:20 | 44.08886 | 5.45364 | 328° | 24km/h | 23275m | 7.2m/s | -55.3°C | 0.0% | 35.3hPa | 0V | 00:00:00 | 00:00:00 | 00:00:00 | |
| AUTORXJP | 2026-08-31 00:37:49 | 44.08741 | 5.45573 | 305° | 35km/h | 23112m | 4.2m/s | -55.6°C | 0.0% | 36.2hPa | 0V | 00:00:00 | 00:00:00 | 00:00:00 | |
| AUTORXJP | 2026-08-31 00:37:18 | 44.08695 | 5.45915 | 254° | 35km/h | 22949m | 6.5m/s | -55.7°C | 0.0% | 37.1hPa | 0V | 00:00:00 | 00:00:00 | 00:00:00 | |
| AUTORXJP | 2026-08-31 00:36:47 | 44.08705 | 5.46185 | 257° | 15km/h | 22785m | 5.1m/s | -55.5°C | 0.0% | 38.1hPa | 0V | 00:00:00 | 00:00:00 | 00:00:00 | |
| AUTORXJP | 2026-08-31 00:36:16 | 44.08797 | 5.46315 | 195° | 15km/h | 22618m | 5.2m/s | -55.0°C | 0.0% | 39.1hPa | 0V | 00:00:00 | 00:00:00 | 00:00:00 | |
| AUTORXJP | 2026-08-31 00:35:45 | 44.08891 | 5.46374 | 176° | 7km/h | 22456m | 3.1m/s | -55.1°C | 0.0% | 40.1hPa | 0V | 00:00:00 | 00:00:00 | 00:00:00 | |
| AUTORXJP | 2026-08-31 00:35:14 | 44.08863 | 5.46337 | 22° | 4km/h | 22290m | 6.6m/s | -54.7°C | 0.0% | 41.2hPa | 0V | 00:00:00 | 00:00:00 | 00:00:00 | |
| AUTORXJP | 2026-08-31 00:34:43 | 44.08789 | 5.46326 | 18° | 16km/h | 22123m | 4.1m/s | -54.2°C | 0.0% | 42.3hPa | 0V | 00:00:00 | 00:00:00 | 00:00:00 | |
| AUTORXJP | 2026-08-31 00:34:12 | 44.08742 | 5.46329 | 267° | 9km/h | 21961m | 5.6m/s | -53.9°C | 0.0% | 43.4hPa | 0V | 00:00:00 | 00:00:00 | 00:00:00 | |
| AUTORXJP | 2026-08-31 00:33:41 | 44.08724 | 5.46365 | 353° | 4km/h | 21801m | 6.3m/s | -54.1°C | 0.0% | 44.5hPa | 0V | 00:00:00 | 00:00:00 | 00:00:00 | |
| AUTORXJP | 2026-08-31 00:33:09 | 44.08658 | 5.46348 | 329° | 9km/h | 21638m | 3.9m/s | -55.2°C | 0.0% | 45.6hPa | 0V | 00:00:00 | 00:00:00 | 00:00:00 | |
| AUTORXJP | 2026-08-31 00:32:38 | 44.08615 | 5.46418 | 288° | 11km/h | 21477m | 3.8m/s | -55.0°C | 0.0% | 46.8hPa | 0V | 00:00:00 | 00:00:00 | 00:00:00 | |
| AUTORXJP | 2026-08-31 00:32:07 | 44.08525 | 5.46421 | 8° | 18km/h | 21322m | 5.9m/s | -55.8°C | 0.0% | 47.9hPa | 0V | 00:00:00 | 00:00:00 | 00:00:00 | |
| AUTORXJP | 2026-08-31 00:31:36 | 44.08407 | 5.46417 | 41° | 18km/h | 21161m | 5.2m/s | -55.6°C | 0.0% | 49.1hPa | 0V | 00:00:00 | 00:00:00 | 00:00:00 | |
| AUTORXJP | 2026-08-31 00:31:05 | 44.08285 | 5.46357 | 351° | 11km/h | 21005m | 4.4m/s | -55.1°C | 0.0% | 50.4hPa | 0V | 00:00:00 | 00:00:00 | 00:00:00 | |
| AUTORXJP | 2026-08-31 00:30:34 | 44.08171 | 5.46276 | 18° | 20km/h | 20851m | 6.9m/s | -55.7°C | 0.0% | 51.6hPa | 0V | 00:00:00 | 00:00:00 | 00:00:00 | |
| AUTORXJP | 2026-08-31 00:30:03 | 44.08051 | 5.46368 | 284° | 9km/h | 20694m | 4.1m/s | -56.0°C | 0.0% | 52.9hPa | 0V | 00:00:00 | 00:00:00 | 00:00:00 | |
| AUTORXJP | 2026-08-31 00:29:32 | 44.08028 | 5.46495 | 238° | 13km/h | 20540m | 6.2m/s | -55.6°C | 0.0% | 54.1hPa | 0V | 00:00:00 | 00:00:00 | 00:00:00 | |
| AUTORXJP | 2026-08-31 00:29:01 | 44.08090 | 5.46534 | 146° | 7km/h | 20388m | 5.7m/s | -56.4°C | 0.0% | 55.5hPa | 0V | 00:00:00 | 00:00:00 | 00:00:00 | |
| DB0UT-7 | 2026-08-31 00:28:54 | 44.08110 | 5.46527 | 161° | 9km/h | 20358m | 6.4m/s | 0°C | 0% | 0hPa | 0V | 00:00:00 | 00:00:00 | 00:00:00 | |
| AUTORXJP | 2026-08-31 00:28:30 | 44.08133 | 5.46453 | 66° | 4km/h | 20234m | 4.7m/s | -56.4°C | 0.0% | 56.8hPa | 0V | 00:00:00 | 00:00:00 | 00:00:00 | |
| DB0UT-7 | 2026-08-31 00:28:24 | 44.08139 | 5.46434 | 110° | 11km/h | 20208m | 5.1m/s | 0°C | 0% | 0hPa | 0V | 00:00:00 | 00:00:00 | 00:00:00 | |
| DB0UT-7 | 2026-08-31 00:27:59 | 44.08134 | 5.46339 | 113° | 15km/h | 20007m | 6.8m/s | 0°C | 0% | 0hPa | 0V | 00:00:00 | 00:00:00 | 00:00:00 | |
| AUTORXJP | 2026-08-31 00:27:28 | 44.08149 | 5.46259 | 83° | 9km/h | 19916m | 6.1m/s | -57.8°C | 0.0% | 59.8hPa | 0V | 00:00:00 | 00:00:00 | 00:00:00 | |
| DB0UT-7 | 2026-08-31 00:27:12 | 44.08151 | 5.46176 | 68° | 27km/h | 19843m | 4.4m/s | 0°C | 0% | 0hPa | 0V | 00:00:00 | 00:00:00 | 00:00:00 | |
| AUTORXJP | 2026-08-31 00:26:56 | 44.08135 | 5.46026 | 81° | 29km/h | 19763m | 5.3m/s | -57.4°C | 0.0% | 61.2hPa | 0V | 00:00:00 | 00:00:00 | 00:00:00 | |
| DB0UT-7 | 2026-08-31 00:26:42 | 44.08105 | 5.45893 | 84° | 24km/h | 19696m | 4.1m/s | 0°C | 0% | 0hPa | 0V | 00:00:00 | 00:00:00 | 00:00:00 | |
| AUTORXJP | 2026-08-31 00:26:25 | 44.08073 | 5.45741 | 58° | 33km/h | 19609m | 3.8m/s | -57.6°C | 0.0% | 62.7hPa | 0V | 00:00:00 | 00:00:00 | 00:00:00 | |
| AUTORXJP | 2026-08-31 00:25:54 | 44.07921 | 5.45517 | 27° | 24km/h | 19449m | 4.5m/s | -57.2°C | 0.1% | 64.3hPa | 0V | 00:00:00 | 00:00:00 | 00:00:00 | |
| AUTORXJP | 2026-08-31 00:25:23 | 44.07768 | 5.45367 | 38° | 11km/h | 19300m | 5.7m/s | -57.2°C | 0.4% | 65.8hPa | 0V | 00:00:00 | 00:00:00 | 00:00:00 | |
| AUTORXJP | 2026-08-31 00:24:52 | 44.07743 | 5.45257 | 107° | 11km/h | 19145m | 5.2m/s | -56.4°C | 0.6% | 67.5hPa | 0V | 00:00:00 | 00:00:00 | 00:00:00 | |
| AUTORXJP | 2026-08-31 00:24:21 | 44.07787 | 5.45076 | 79° | 13km/h | 18992m | 3.8m/s | -56.1°C | 0.7% | 69.1hPa | 0V | 00:00:00 | 00:00:00 | 00:00:00 | |
| AUTORXJP | 2026-08-31 00:23:50 | 44.07787 | 5.44820 | 80° | 37km/h | 18844m | 4.4m/s | -57.0°C | 0.8% | 70.8hPa | 0V | 00:00:00 | 00:00:00 | 00:00:00 | |
| AUTORXJP | 2026-08-31 00:23:19 | 44.07714 | 5.44559 | 69° | 20km/h | 18692m | 4.5m/s | -56.9°C | 0.9% | 72.5hPa | 0V | 00:00:00 | 00:00:00 | 00:00:00 | |
| AUTORXJP | 2026-08-31 00:22:48 | 44.07625 | 5.44240 | 84° | 29km/h | 18543m | 5.9m/s | -57.1°C | 0.9% | 74.2hPa | 0V | 00:00:00 | 00:00:00 | 00:00:00 | |
| AUTORXJP | 2026-08-31 00:22:17 | 44.07557 | 5.43924 | 71° | 31km/h | 18393m | 7.0m/s | -58.4°C | 0.9% | 76.0hPa | 0V | 00:00:00 | 00:00:00 | 00:00:00 | |
| AUTORXJP | 2026-08-31 00:21:46 | 44.07453 | 5.43587 | 68° | 33km/h | 18242m | 4.5m/s | -58.8°C | 1.0% | 77.8hPa | 0V | 00:00:00 | 00:00:00 | 00:00:00 | |
| AUTORXJP | 2026-08-31 00:21:15 | 44.07267 | 5.43249 | 44° | 40km/h | 18093m | 5.4m/s | -59.6°C | 1.4% | 79.7hPa | 0V | 00:00:00 | 00:00:00 | 00:00:00 | |
| AUTORXJP | 2026-08-31 00:20:43 | 44.06994 | 5.43040 | 25° | 38km/h | 17937m | 5.8m/s | -58.6°C | 1.9% | 81.7hPa | 0V | 00:00:00 | 00:00:00 | 00:00:00 | |
| AUTORXJP | 2026-08-31 00:20:12 | 44.06750 | 5.42861 | 25° | 33km/h | 17784m | 4.0m/s | -57.5°C | 2.4% | 83.7hPa | 0V | 00:00:00 | 00:00:00 | 00:00:00 | |
| AUTORXJP | 2026-08-31 00:19:41 | 44.06518 | 5.42682 | 22° | 37km/h | 17636m | 1.4m/s | -57.0°C | 3.0% | 85.7hPa | 0V | 00:00:00 | 00:00:00 | 00:00:00 | |
| AUTORXJP | 2026-08-31 00:19:10 | 44.06341 | 5.42493 | 29° | 24km/h | 17485m | 4.3m/s | -56.0°C | 3.7% | 87.7hPa | 0V | 00:00:00 | 00:00:00 | 00:00:00 | |
| AUTORXJP | 2026-08-31 00:18:39 | 44.06242 | 5.42325 | 68° | 18km/h | 17335m | 2.2m/s | -56.9°C | 4.3% | 89.8hPa | 0V | 00:00:00 | 00:00:00 | 00:00:00 | |
| AUTORXJP | 2026-08-31 00:18:08 | 44.06205 | 5.42137 | 79° | 20km/h | 17187m | 5.6m/s | -56.3°C | 4.8% | 91.9hPa | 0V | 00:00:00 | 00:00:00 | 00:00:00 | |
| AUTORXJP | 2026-08-31 00:17:37 | 44.06224 | 5.41875 | 93° | 31km/h | 17039m | 6.9m/s | -57.8°C | 5.2% | 94.1hPa | 0V | 00:00:00 | 00:00:00 | 00:00:00 | |
| AUTORXJP | 2026-08-31 00:17:07 | 44.06271 | 5.41353 | 103° | 57km/h | 16887m | 4.2m/s | -59.4°C | 5.5% | 96.4hPa | 0V | 00:00:00 | 00:00:00 | 00:00:00 | |
| AUTORXJP | 2026-08-31 00:16:35 | 44.06287 | 5.40676 | 88° | 64km/h | 16741m | 4.5m/s | -60.4°C | 6.0% | 98.7hPa | 0V | 00:00:00 | 00:00:00 | 00:00:00 | |
| AUTORXJP | 2026-08-31 00:16:04 | 44.06179 | 5.39834 | 75° | 89km/h | 16591m | 2.8m/s | -61.6°C | 6.2% | 101.1hPa | 0V | 00:00:00 | 00:00:00 | 00:00:00 | |
| AUTORXJP | 2026-08-31 00:15:33 | 44.05925 | 5.39017 | 65° | 71km/h | 16448m | 4.5m/s | -62.2°C | 6.8% | 103.4hPa | 0V | 00:00:00 | 00:00:00 | 00:00:00 | |
| AUTORXJP | 2026-08-31 00:15:02 | 44.05640 | 5.38311 | 55° | 69km/h | 16306m | 4.0m/s | -62.0°C | 7.5% | 105.8hPa | 0V | 00:00:00 | 00:00:00 | 00:00:00 | |
| AUTORXJP | 2026-08-31 00:14:31 | 44.05358 | 5.37669 | 62° | 66km/h | 16159m | 6.2m/s | -61.5°C | 8.5% | 108.3hPa | 0V | 00:00:00 | 00:00:00 | 00:00:00 | |
| AUTORXJP | 2026-08-31 00:14:00 | 44.05084 | 5.37030 | 49° | 68km/h | 16010m | 6.5m/s | -60.7°C | 9.3% | 111.0hPa | 0V | 00:00:00 | 00:00:00 | 00:00:00 | |
| AUTORXJP | 2026-08-31 00:13:28 | 44.04774 | 5.36528 | 55° | 58km/h | 15866m | 4.9m/s | -60.7°C | 9.7% | 113.6hPa | 0V | 00:00:00 | 00:00:00 | 00:00:00 | |
| AUTORXJP | 2026-08-31 00:12:57 | 44.04552 | 5.35911 | 63° | 77km/h | 15715m | 4.4m/s | -63.0°C | 9.7% | 116.4hPa | 0V | 00:00:00 | 00:00:00 | 00:00:00 | |
| AUTORXJP | 2026-08-31 00:12:26 | 44.04317 | 5.35191 | 69° | 64km/h | 15569m | 3.2m/s | -63.1°C | 10.5% | 119.2hPa | 0V | 00:00:00 | 00:00:00 | 00:00:00 | |
| AUTORXJP | 2026-08-31 00:11:55 | 44.04167 | 5.34529 | 64° | 66km/h | 15432m | 4.7m/s | -62.9°C | 11.3% | 121.8hPa | 0V | 00:00:00 | 00:00:00 | 00:00:00 | |
| AUTORXJP | 2026-08-31 00:11:24 | 44.03961 | 5.33847 | 66° | 66km/h | 15289m | 2.9m/s | -62.4°C | 12.2% | 124.7hPa | 0V | 00:00:00 | 00:00:00 | 00:00:00 | |
| AUTORXJP | 2026-08-31 00:10:54 | 44.03806 | 5.33106 | 77° | 71km/h | 15150m | 4.3m/s | -62.5°C | 13.2% | 127.5hPa | 0V | 00:00:00 | 00:00:00 | 00:00:00 | |
| AUTORXJP | 2026-08-31 00:10:22 | 44.03681 | 5.32269 | 77° | 84km/h | 15004m | 5.8m/s | -62.5°C | 14.2% | 130.6hPa | 0V | 00:00:00 | 00:00:00 | 00:00:00 | |
| AUTORXJP | 2026-08-31 00:09:51 | 44.03478 | 5.31327 | 71° | 93km/h | 14856m | 6.1m/s | -62.3°C | 15.6% | 133.7hPa | 0V | 00:00:00 | 00:00:00 | 00:00:00 | |
| AUTORXJP | 2026-08-31 00:09:20 | 44.03222 | 5.30427 | 63° | 88km/h | 14711m | 4.6m/s | -62.0°C | 17.4% | 136.9hPa | 0V | 00:00:00 | 00:00:00 | 00:00:00 | |
| AUTORXJP | 2026-08-31 00:08:49 | 44.02898 | 5.29661 | 53° | 82km/h | 14567m | 3.5m/s | -61.0°C | 19.4% | 140.1hPa | 0V | 00:00:00 | 00:00:00 | 00:00:00 | |
| AUTORXJP | 2026-08-31 00:08:18 | 44.02559 | 5.28932 | 61° | 80km/h | 14429m | 3.4m/s | -60.9°C | 21.5% | 143.2hPa | 0V | 00:00:00 | 00:00:00 | 00:00:00 | |
| AUTORXJP | 2026-08-31 00:07:47 | 44.02247 | 5.28147 | 64° | 82km/h | 14295m | 5.3m/s | -60.9°C | 23.8% | 146.3hPa | 0V | 00:00:00 | 00:00:00 | 00:00:00 | |
| AUTORXJP | 2026-08-31 00:07:16 | 44.01964 | 5.27243 | 61° | 97km/h | 14164m | 4.6m/s | -61.6°C | 25.5% | 149.4hPa | 0V | 00:00:00 | 00:00:00 | 00:00:00 | |
| AUTORXJP | 2026-08-31 00:06:44 | 44.01647 | 5.26260 | 65° | 97km/h | 14029m | 3.8m/s | -61.7°C | 27.0% | 152.8hPa | 0V | 00:00:00 | 00:00:00 | 00:00:00 | |
| AUTORXJP | 2026-08-31 00:06:13 | 44.01313 | 5.25247 | 71° | 95km/h | 13890m | 3.6m/s | -62.6°C | 28.0% | 156.2hPa | 0V | 00:00:00 | 00:00:00 | 00:00:00 | |
| AUTORXJP | 2026-08-31 00:05:42 | 44.01051 | 5.24217 | 73° | 91km/h | 13745m | 4.3m/s | -62.4°C | 29.2% | 159.9hPa | 0V | 00:00:00 | 00:00:00 | 00:00:00 | |
| AUTORXJP | 2026-08-31 00:05:11 | 44.00842 | 5.23177 | 75° | 100km/h | 13602m | 5.7m/s | -62.0°C | 31.1% | 163.7hPa | 0V | 00:00:00 | 00:00:00 | 00:00:00 | |
| AUTORXJP | 2026-08-31 00:04:40 | 44.00666 | 5.22079 | 76° | 99km/h | 13455m | 3.4m/s | -61.2°C | 34.0% | 167.6hPa | 0V | 00:00:00 | 00:00:00 | 00:00:00 | |
| AUTORXJP | 2026-08-31 00:04:09 | 44.00484 | 5.20972 | 78° | 108km/h | 13311m | 6.6m/s | -60.3°C | 37.7% | 171.5hPa | 0V | 00:00:00 | 00:00:00 | 00:00:00 | |
| AUTORXJP | 2026-08-31 00:03:38 | 44.00281 | 5.19769 | 75° | 119km/h | 13166m | 3.7m/s | -60.1°C | 40.9% | 175.5hPa | 0V | 00:00:00 | 00:00:00 | 00:00:00 | |
| AUTORXJP | 2026-08-31 00:03:09 | 44.00058 | 5.18478 | 76° | 117km/h | 13023m | 3.0m/s | -60.7°C | 43.6% | 179.6hPa | 0V | 00:00:00 | 00:00:00 | 00:00:00 | |
| AUTORXJP | 2026-08-31 00:02:36 | 43.99674 | 5.15550 | 80° | 135km/h | 12728m | 4.1m/s | -58.9°C | 45.2% | 188.2hPa | 0V | 00:00:00 | 00:00:00 | 00:00:00 | |
| AUTORXJP | 2026-08-31 00:01:52 | 43.99453 | 5.14060 | 77° | 135km/h | 12585m | 3.6m/s | -58.1°C | 45.3% | 192.6hPa | 0V | 00:00:00 | 00:00:00 | 00:00:00 | |
| AUTORXJP | 2026-08-31 00:01:10 | 43.99239 | 5.12602 | 77° | 133km/h | 12442m | 4.8m/s | -57.2°C | 45.7% | 197.0hPa | 0V | 00:00:00 | 00:00:00 | 00:00:00 | |
| AUTORXJP | 2026-08-31 00:00:34 | 43.99043 | 5.11155 | 79° | 135km/h | 12305m | 5.5m/s | -56.4°C | 44.8% | 201.3hPa | 0V | 00:00:00 | 00:00:00 | 00:00:00 | |
| AUTORXJP | 2026-08-31 00:00:00 | 43.98838 | 5.09706 | 76° | 137km/h | 12165m | 5.6m/s | -55.3°C | 43.7% | 205.8hPa | 0V | 00:00:00 | 00:00:00 | 00:00:00 | |
| AUTORXJP | 2026-08-30 23:59:29 | 43.98605 | 5.08235 | 74° | 131km/h | 12025m | 4.2m/s | -54.2°C | 42.8% | 210.3hPa | 0V | 00:00:00 | 00:00:00 | 00:00:00 | |
| AUTORXJP | 2026-08-30 23:58:58 | 43.98338 | 5.06831 | 77° | 133km/h | 11890m | 5.0m/s | -53.0°C | 41.2% | 214.8hPa | 0V | 00:00:00 | 00:00:00 | 00:00:00 | |
| AUTORXJP | 2026-08-30 23:58:28 | 43.98105 | 5.05417 | 78° | 135km/h | 11757m | 4.9m/s | -51.9°C | 39.8% | 219.3hPa | 0V | 00:00:00 | 00:00:00 | 00:00:00 | |
| AUTORXJP | 2026-08-30 23:57:56 | 43.97864 | 5.04015 | 75° | 137km/h | 11630m | 3.8m/s | -50.7°C | 40.5% | 223.7hPa | 0V | 00:00:00 | 00:00:00 | 00:00:00 | |
| AUTORXJP | 2026-08-30 23:57:25 | 43.97596 | 5.02630 | 77° | 130km/h | 11504m | 3.1m/s | -50.0°C | 42.4% | 228.0hPa | 0V | 00:00:00 | 00:00:00 | 00:00:00 | |
| AUTORXJP | 2026-08-30 23:56:54 | 43.97313 | 5.01250 | 73° | 133km/h | 11381m | 3.5m/s | -49.3°C | 42.9% | 232.3hPa | 0V | 00:00:00 | 00:00:00 | 00:00:00 | |
| AUTORXJP | 2026-08-30 23:56:23 | 43.97024 | 4.99859 | 73° | 131km/h | 11255m | 4.2m/s | -48.3°C | 42.8% | 236.8hPa | 0V | 00:00:00 | 00:00:00 | 00:00:00 | |
| AUTORXJP | 2026-08-30 23:55:52 | 43.96745 | 4.98491 | 73° | 131km/h | 11130m | 4.0m/s | -47.2°C | 42.1% | 241.3hPa | 0V | 00:00:00 | 00:00:00 | 00:00:00 | |
| AUTORXJP | 2026-08-30 23:55:21 | 43.96481 | 4.97113 | 75° | 126km/h | 11007m | 4.0m/s | -46.4°C | 41.9% | 245.9hPa | 0V | 00:00:00 | 00:00:00 | 00:00:00 | |
| AUTORXJP | 2026-08-30 23:54:50 | 43.96214 | 4.95717 | 75° | 130km/h | 10885m | 3.9m/s | -45.2°C | 39.8% | 250.4hPa | 0V | 00:00:00 | 00:00:00 | 00:00:00 | |
| AUTORXJP | 2026-08-30 23:54:19 | 43.95944 | 4.94328 | 75° | 128km/h | 10759m | 3.5m/s | -44.0°C | 37.9% | 255.2hPa | 0V | 00:00:00 | 00:00:00 | 00:00:00 | |
| AUTORXJP | 2026-08-30 23:53:16 | 43.95451 | 4.91560 | 79° | 133km/h | 10512m | 3.8m/s | -42.1°C | 36.9% | 264.9hPa | 0V | 00:00:00 | 00:00:00 | 00:00:00 | |
| AUTORXJP | 2026-08-30 23:52:45 | 43.95229 | 4.90115 | 76° | 126km/h | 10384m | 3.6m/s | -41.2°C | 37.5% | 269.9hPa | 0V | 00:00:00 | 00:00:00 | 00:00:00 | |
| AUTORXJP | 2026-08-30 23:52:14 | 43.94994 | 4.88783 | 74° | 124km/h | 10261m | 3.4m/s | -40.2°C | 35.9% | 274.8hPa | 0V | 00:00:00 | 00:00:00 | 00:00:00 | |
| AUTORXJP | 2026-08-30 23:51:43 | 43.94734 | 4.87476 | 73° | 124km/h | 10138m | 3.4m/s | -39.0°C | 32.2% | 279.8hPa | 0V | 00:00:00 | 00:00:00 | 00:00:00 | |
| AUTORXJP | 2026-08-30 23:51:12 | 43.94484 | 4.86182 | 76° | 122km/h | 10019m | 5.4m/s | -37.9°C | 30.4% | 284.7hPa | 0V | 00:00:00 | 00:00:00 | 00:00:00 | |
| AUTORXJP | 2026-08-30 23:50:41 | 43.94235 | 4.84889 | 76° | 124km/h | 9897m | 3.9m/s | -36.9°C | 27.4% | 289.7hPa | 0V | 00:00:00 | 00:00:00 | 00:00:00 | |
| AUTORXJP | 2026-08-30 23:50:10 | 43.94001 | 4.83610 | 73° | 124km/h | 9768m | 4.9m/s | -35.7°C | 26.5% | 295.3hPa | 0V | 00:00:00 | 00:00:00 | 00:00:00 | |
| AUTORXJP | 2026-08-30 23:49:39 | 43.93757 | 4.82352 | 74° | 115km/h | 9643m | 3.3m/s | -34.7°C | 25.7% | 300.6hPa | 0V | 00:00:00 | 00:00:00 | 00:00:00 | |
| AUTORXJP | 2026-08-30 23:49:08 | 43.93494 | 4.81102 | 71° | 124km/h | 9521m | 3.1m/s | -34.0°C | 28.7% | 306.0hPa | 0V | 00:00:00 | 00:00:00 | 00:00:00 | |
| AUTORXJP | 2026-08-30 23:48:37 | 43.93201 | 4.79886 | 70° | 122km/h | 9401m | 4.1m/s | -33.3°C | 32.6% | 311.2hPa | 0V | 00:00:00 | 00:00:00 | 00:00:00 | |
| AUTORXJP | 2026-08-30 23:48:06 | 43.92891 | 4.78681 | 71° | 120km/h | 9274m | 4.5m/s | -32.2°C | 34.7% | 317.0hPa | 0V | 00:00:00 | 00:00:00 | 00:00:00 | |
| AUTORXJP | 2026-08-30 23:47:35 | 43.92566 | 4.77462 | 70° | 119km/h | 9157m | 5.7m/s | -31.6°C | 38.6% | 322.2hPa | 0V | 00:00:00 | 00:00:00 | 00:00:00 | |
| AUTORXJP | 2026-08-30 23:47:04 | 43.92229 | 4.76187 | 67° | 122km/h | 9033m | 4.4m/s | -30.6°C | 36.9% | 327.8hPa | 0V | 00:00:00 | 00:00:00 | 00:00:00 | |
| AUTORXJP | 2026-08-30 23:46:32 | 43.91927 | 4.74994 | 68° | 122km/h | 8904m | 2.2m/s | -29.4°C | 35.3% | 333.9hPa | 0V | 00:00:00 | 00:00:00 | 00:00:00 | |
| AUTORXJP | 2026-08-30 23:46:01 | 43.91615 | 4.73723 | 69° | 120km/h | 8767m | 3.2m/s | -28.1°C | 34.3% | 340.5hPa | 0V | 00:00:00 | 00:00:00 | 00:00:00 | |
| AUTORXJP | 2026-08-30 23:45:30 | 43.91311 | 4.72532 | 72° | 117km/h | 8652m | 5.1m/s | -27.2°C | 33.2% | 346.0hPa | 0V | 00:00:00 | 00:00:00 | 00:00:00 | |
| AUTORXJP | 2026-08-30 23:44:59 | 43.91033 | 4.71366 | 70° | 108km/h | 8534m | 2.9m/s | -26.4°C | 35.0% | 351.6hPa | 0V | 00:00:00 | 00:00:00 | 00:00:00 | |
| AUTORXJP | 2026-08-30 23:44:28 | 43.90735 | 4.70202 | 69° | 111km/h | 8420m | 4.7m/s | -25.3°C | 34.6% | 357.4hPa | 0V | 00:00:00 | 00:00:00 | 00:00:00 | |
| AUTORXJP | 2026-08-30 23:43:57 | 43.90438 | 4.69063 | 70° | 115km/h | 8297m | 4.7m/s | -24.3°C | 34.4% | 363.4hPa | 0V | 00:00:00 | 00:00:00 | 00:00:00 | |
| AUTORXJP | 2026-08-30 23:43:26 | 43.90127 | 4.67951 | 70° | 110km/h | 8179m | 4.0m/s | -23.6°C | 33.9% | 369.4hPa | 0V | 00:00:00 | 00:00:00 | 00:00:00 | |
| AUTORXJP | 2026-08-30 23:42:55 | 43.89874 | 4.66858 | 75° | 106km/h | 8056m | 3.4m/s | -22.7°C | 25.0% | 375.7hPa | 0V | 00:00:00 | 00:00:00 | 00:00:00 | |
| AUTORXJP | 2026-08-30 23:42:24 | 43.89653 | 4.65764 | 78° | 106km/h | 7930m | 4.3m/s | -21.6°C | 14.0% | 382.2hPa | 0V | 00:00:00 | 00:00:00 | 00:00:00 | |
| AUTORXJP | 2026-08-30 23:41:53 | 43.89460 | 4.64683 | 72° | 99km/h | 7792m | 4.0m/s | -20.7°C | 15.2% | 389.4hPa | 0V | 00:00:00 | 00:00:00 | 00:00:00 | |
| AUTORXJP | 2026-08-30 23:41:22 | 43.89245 | 4.63624 | 74° | 95km/h | 7649m | 4.7m/s | -20.1°C | 12.8% | 397.1hPa | 0V | 00:00:00 | 00:00:00 | 00:00:00 | |
| AUTORXJP | 2026-08-30 23:40:51 | 43.89043 | 4.62622 | 74° | 97km/h | 7509m | 4.1m/s | -19.5°C | 14.8% | 404.6hPa | 0V | 00:00:00 | 00:00:00 | 00:00:00 | |
| AUTORXJP | 2026-08-30 23:40:20 | 43.88873 | 4.61612 | 77° | 91km/h | 7363m | 5.3m/s | -18.7°C | 17.9% | 412.7hPa | 0V | 00:00:00 | 00:00:00 | 00:00:00 | |
| AUTORXJP | 2026-08-30 23:39:48 | 43.88699 | 4.60658 | 74° | 99km/h | 7222m | 5.8m/s | -17.7°C | 19.3% | 420.6hPa | 0V | 00:00:00 | 00:00:00 | 00:00:00 | |
| AUTORXJP | 2026-08-30 23:39:17 | 43.88493 | 4.59636 | 71° | 89km/h | 7066m | 8.1m/s | -16.2°C | 17.2% | 429.7hPa | 0V | 00:00:00 | 00:00:00 | 00:00:00 |